Terminal Aerodrome Forecast
Issued by NWS

Home | Current Version | Previous Version | Text Only | Print | Product List | Glossary On
Versions: 1 2 3 4 5 6 7 8 9 10 11 12 13 14 15 16 17 18
711
FTUS46 KSGX 311720
TAFCRQ
TAF
KCRQ 311720Z 3118/0118 VRB06KT 4SM BR BKN006
     FM311900 24008KT P6SM SCT007
     FM010000 VRB05KT P6SM SCT007
     FM010600 VRB03KT 3SM BR VCFG OVC004
     FM011100 VRB03KT 1/2SM FG OVC002
     FM011500 VRB04KT 2SM BR OVC004
     FM011700 VRB04KT 5SM HZ SCT005=

USA.gov is the U.S. government's official web portal to all federal, state and local government web resources and services.